createdAt,value
2018-12-05T00:00:33.766Z,6.7
2018-12-05T00:01:33.523Z,6.66
2018-12-05T00:02:33.506Z,6.69
2018-12-05T00:03:33.250Z,6.63
2018-12-05T00:04:33.505Z,6.66
2018-12-05T00:05:33.466Z,6.59
2018-12-05T00:06:33.460Z,6.67
2018-12-05T00:07:33.750Z,6.66
2018-12-05T00:08:33.205Z,6.69
2018-12-05T00:09:33.696Z,6.72
2018-12-05T00:10:33.441Z,6.69
2018-12-05T00:11:33.421Z,6.69
2018-12-05T00:12:33.664Z,6.7
2018-12-05T00:13:33.411Z,6.64
2018-12-05T00:14:33.673Z,6.74
2018-12-05T00:15:33.654Z,6.67
2018-12-05T00:16:33.217Z,6.64
2018-12-05T00:17:33.634Z,6.64
2018-12-05T00:18:33.123Z,6.67
2018-12-05T00:19:33.634Z,6.64
2018-12-05T00:20:33.618Z,6.62
2018-12-05T00:21:33.359Z,6.63
2018-12-05T00:22:33.165Z,6.66
2018-12-05T00:23:33.599Z,6.62
2018-12-05T00:24:33.585Z,6.62
2018-12-05T00:25:33.569Z,6.57
2018-12-05T00:26:33.334Z,6.6
2018-12-05T00:27:33.069Z,6.64
2018-12-05T00:28:33.305Z,6.64
2018-12-05T00:29:33.557Z,6.66
2018-12-05T00:30:33.327Z,6.56
2018-12-05T00:31:33.544Z,6.49
2018-12-05T00:32:33.269Z,6.48
2018-12-05T00:33:33.513Z,6.46
2018-12-05T00:34:33.268Z,6.45
2018-12-05T00:35:33.240Z,6.46
2018-12-05T00:36:33.566Z,6.62
2018-12-05T00:37:32.990Z,6.56
2018-12-05T00:38:33.478Z,6.56
2018-12-05T00:39:33.223Z,6.54
2018-12-05T00:40:33.218Z,6.56
2018-12-05T00:41:33.249Z,6.56
2018-12-05T00:42:33.459Z,6.54
2018-12-05T00:43:33.439Z,6.66
2018-12-05T00:44:33.432Z,6.6
2018-12-05T00:45:33.167Z,6.62
2018-12-05T00:46:32.915Z,6.63
2018-12-05T00:47:32.903Z,6.64
2018-12-05T00:48:33.201Z,6.54
2018-12-05T00:49:33.494Z,6.69
2018-12-05T00:50:33.132Z,6.69
2018-12-05T00:51:33.370Z,6.69
2018-12-05T00:52:33.114Z,6.62
2018-12-05T00:53:33.107Z,6.66
2018-12-05T00:54:33.365Z,6.66
2018-12-05T00:55:33.353Z,6.72
2018-12-05T00:56:33.089Z,6.75
2018-12-05T00:57:32.977Z,6.64
2018-12-05T00:58:33.450Z,6.69
2018-12-05T00:59:33.326Z,6.7
2018-12-05T01:00:33.318Z,6.72
2018-12-05T01:01:33.047Z,6.78
2018-12-05T01:02:33.061Z,6.75
2018-12-05T01:03:33.286Z,6.77
2018-12-05T01:04:33.033Z,6.77
2018-12-05T01:05:33.029Z,6.79
2018-12-05T01:06:33.273Z,6.75
2018-12-05T01:07:33.037Z,6.78
2018-12-05T01:08:33.261Z,6.77
2018-12-05T01:09:32.991Z,6.79
2018-12-05T01:10:32.988Z,6.82
2018-12-05T01:11:32.983Z,6.85
2018-12-05T01:12:32.982Z,6.81
2018-12-05T01:13:33.211Z,6.88
2018-12-05T01:14:32.970Z,6.88
2018-12-05T01:15:32.956Z,6.87
2018-12-05T01:16:32.701Z,6.82
2018-12-05T01:17:32.933Z,6.89
2018-12-05T01:18:32.923Z,6.88
2018-12-05T01:19:33.196Z,6.88
2018-12-05T01:20:33.178Z,6.92
2018-12-05T01:21:32.661Z,6.87
2018-12-05T01:22:33.159Z,6.93
2018-12-05T01:23:32.910Z,6.89
2018-12-05T01:24:32.655Z,6.88
2018-12-05T01:25:32.883Z,6.92
2018-12-05T01:26:33.115Z,6.85
2018-12-05T01:27:32.614Z,6.89
2018-12-05T01:28:32.871Z,6.82
2018-12-05T01:29:33.130Z,6.79
2018-12-05T01:30:33.098Z,6.78
2018-12-05T01:31:32.581Z,6.81
2018-12-05T01:32:32.827Z,6.75
2018-12-05T01:33:33.070Z,6.74
2018-12-05T01:34:33.062Z,6.82
2018-12-05T01:35:32.819Z,6.7
2018-12-05T01:36:32.804Z,6.77
2018-12-05T01:37:33.045Z,6.77
2018-12-05T01:38:32.782Z,6.74
2018-12-05T01:39:32.771Z,6.79
2018-12-05T01:40:33.017Z,6.7
2018-12-05T01:41:32.772Z,6.69
2018-12-05T01:42:32.508Z,6.79
2018-12-05T01:43:32.752Z,6.77
2018-12-05T01:44:32.992Z,6.75
2018-12-05T01:45:32.971Z,6.78
2018-12-05T01:46:32.972Z,6.77
2018-12-05T01:47:32.714Z,6.7
2018-12-05T01:48:32.726Z,6.72
2018-12-05T01:49:32.963Z,6.72
2018-12-05T01:50:32.950Z,6.66
2018-12-05T01:51:32.931Z,6.78
2018-12-05T01:52:32.454Z,6.75
2018-12-05T01:53:32.442Z,6.72
2018-12-05T01:54:32.445Z,6.75
2018-12-05T01:55:32.656Z,6.72
2018-12-05T01:56:32.648Z,6.88
2018-12-05T01:57:32.656Z,6.81
2018-12-05T01:58:32.629Z,6.87
2018-12-05T01:59:32.644Z,6.81
2018-12-05T02:00:32.618Z,6.78
2018-12-05T02:01:32.871Z,6.74
2018-12-05T02:02:32.608Z,6.93
2018-12-05T02:03:32.857Z,6.88
2018-12-05T02:04:32.836Z,6.89
2018-12-05T02:05:32.339Z,6.78
2018-12-05T02:06:32.826Z,6.87
2018-12-05T02:07:32.574Z,6.93
2018-12-05T02:08:32.564Z,6.92
2018-12-05T02:09:32.567Z,6.95
2018-12-05T02:10:32.813Z,6.89
2018-12-05T02:11:32.538Z,6.87
2018-12-05T02:12:32.535Z,6.87
2018-12-05T02:13:32.785Z,6.88
2018-12-05T02:14:32.522Z,6.88
2018-12-05T02:15:32.517Z,6.85
2018-12-05T02:16:32.524Z,6.77
2018-12-05T02:17:32.513Z,6.74
2018-12-05T02:18:32.734Z,6.78
2018-12-05T02:19:32.721Z,6.85
2018-12-05T02:20:32.722Z,6.82
2018-12-05T02:21:32.535Z,6.75
2018-12-05T02:22:32.716Z,6.87
2018-12-05T02:23:32.460Z,6.88
2018-12-05T02:24:32.444Z,6.79
2018-12-05T02:25:32.221Z,6.72
2018-12-05T02:26:32.686Z,6.72
2018-12-05T02:27:32.663Z,6.85
2018-12-05T02:28:32.665Z,6.78
2018-12-05T02:29:32.418Z,6.78
2018-12-05T02:30:32.652Z,6.87
2018-12-05T02:31:32.410Z,6.87
2018-12-05T02:32:32.677Z,6.79
2018-12-05T02:33:32.389Z,6.81
2018-12-05T02:34:32.371Z,6.79
2018-12-05T02:35:32.626Z,6.74
2018-12-05T02:36:32.613Z,6.75
2018-12-05T02:37:32.353Z,6.7
2018-12-05T02:38:32.603Z,6.75
2018-12-05T02:39:32.333Z,6.69
2018-12-05T02:40:32.581Z,6.67
2018-12-05T02:41:32.567Z,6.66
2018-12-05T02:42:32.563Z,6.72
2018-12-05T02:43:32.312Z,6.6
2018-12-05T02:44:32.565Z,6.6
2018-12-05T02:45:32.539Z,6.56
2018-12-05T02:46:32.035Z,6.52
2018-12-05T02:47:32.045Z,6.57
2018-12-05T02:48:32.545Z,6.44
2018-12-05T02:49:32.263Z,6.57
2018-12-05T02:50:32.005Z,6.54
2018-12-05T02:51:32.510Z,6.52
2018-12-05T02:52:32.494Z,6.56
2018-12-05T02:53:32.227Z,6.51
2018-12-05T02:54:32.739Z,6.56
2018-12-05T02:55:32.462Z,6.59
2018-12-05T02:56:32.458Z,6.51
2018-12-05T02:57:32.440Z,6.57
2018-12-05T02:58:32.185Z,6.46
2018-12-05T02:59:32.189Z,6.42
2018-12-05T03:00:32.184Z,6.42
2018-12-05T03:01:32.418Z,6.38
2018-12-05T03:02:32.414Z,6.36
2018-12-05T03:03:32.184Z,6.28
2018-12-05T03:04:32.164Z,6.28
2018-12-05T03:05:32.129Z,6.28
2018-12-05T03:06:32.370Z,6.33
2018-12-05T03:07:32.143Z,6.24
2018-12-05T03:08:31.882Z,6.26
2018-12-05T03:09:32.100Z,6.26
2018-12-05T03:10:32.110Z,6.26
2018-12-05T03:11:32.094Z,6.2
2018-12-05T03:12:32.077Z,6.2
2018-12-05T03:13:32.344Z,6.11
2018-12-05T03:14:32.064Z,6.17
2018-12-05T03:15:31.971Z,6.11
2018-12-05T03:16:32.298Z,6.16
2018-12-05T03:17:31.811Z,6.09
2018-12-05T03:18:32.047Z,6.09
2018-12-05T03:19:31.772Z,6.07
2018-12-05T03:20:32.067Z,6.04
2018-12-05T03:21:32.001Z,6.01
2018-12-05T03:22:32.247Z,5.98
2018-12-05T03:23:32.003Z,5.93
2018-12-05T03:24:31.989Z,5.93
2018-12-05T03:25:32.213Z,6.01
2018-12-05T03:26:31.967Z,5.97
2018-12-05T03:27:31.956Z,6.04
2018-12-05T03:28:31.706Z,5.99
2018-12-05T03:29:32.196Z,6.12
2018-12-05T03:30:31.955Z,6.14
2018-12-05T03:31:31.943Z,6.19
2018-12-05T03:32:32.201Z,6.26
2018-12-05T03:33:32.165Z,6.26
2018-12-05T03:34:31.909Z,6.31
2018-12-05T03:35:32.131Z,6.35
2018-12-05T03:36:32.125Z,6.3
2018-12-05T03:37:32.141Z,6.27
2018-12-05T03:38:32.116Z,6.36
2018-12-05T03:39:31.626Z,6.41
2018-12-05T03:40:31.846Z,6.39
2018-12-05T03:41:31.849Z,6.36
2018-12-05T03:42:31.849Z,6.28
2018-12-05T03:43:31.834Z,6.22
2018-12-05T03:44:31.815Z,6.26
2018-12-05T03:45:33.965Z,6.2
2018-12-05T03:46:32.055Z,6.27
2018-12-05T03:47:31.805Z,6.26
2018-12-05T03:48:32.040Z,6.24
2018-12-05T03:49:31.852Z,6.28
2018-12-05T03:50:32.027Z,6.27
2018-12-05T03:51:31.768Z,6.22
2018-12-05T03:52:31.776Z,6.24
2018-12-05T03:53:31.777Z,6.26
2018-12-05T03:54:31.989Z,6.27
2018-12-05T03:55:31.973Z,6.22
2018-12-05T03:56:31.974Z,6.26
2018-12-05T03:57:31.979Z,6.2
2018-12-05T03:58:31.982Z,6.26
2018-12-05T03:59:31.706Z,6.28
2018-12-05T04:00:31.933Z,6.26
2018-12-05T04:01:31.681Z,6.24
2018-12-05T04:02:31.919Z,6.3
2018-12-05T04:03:31.911Z,6.24
2018-12-05T04:04:31.677Z,6.28
2018-12-05T04:05:31.646Z,6.24
2018-12-05T04:06:31.632Z,6.33
2018-12-05T04:07:31.895Z,6.36
2018-12-05T04:08:31.902Z,6.36
2018-12-05T04:09:31.620Z,6.3
2018-12-05T04:10:31.614Z,6.36
2018-12-05T04:11:31.926Z,6.38
2018-12-05T04:12:40.217Z,6.41
2018-12-05T04:13:31.859Z,6.3
2018-12-05T04:14:31.842Z,6.44
2018-12-05T04:15:31.814Z,6.41
2018-12-05T04:16:31.810Z,6.48
2018-12-05T04:17:31.556Z,6.45
2018-12-05T04:18:31.808Z,6.46
2018-12-05T04:19:31.809Z,6.51
2018-12-05T04:20:31.535Z,6.49
2018-12-05T04:21:31.776Z,6.48
2018-12-05T04:22:31.773Z,6.42
2018-12-05T04:23:31.810Z,6.46
2018-12-05T04:24:31.263Z,6.49
2018-12-05T04:25:31.758Z,6.48
2018-12-05T04:26:31.756Z,6.49
2018-12-05T04:27:31.729Z,6.45
2018-12-05T04:28:31.495Z,6.49
2018-12-05T04:29:31.712Z,6.44
2018-12-05T04:30:31.470Z,6.49
2018-12-05T04:31:31.447Z,6.41
2018-12-05T04:32:31.700Z,6.44
2018-12-05T04:33:31.676Z,6.46
2018-12-05T04:34:31.484Z,6.56
2018-12-05T04:35:31.665Z,6.49
2018-12-05T04:36:31.670Z,6.59
2018-12-05T04:37:31.659Z,6.57
2018-12-05T04:38:31.404Z,6.56
2018-12-05T04:39:31.650Z,6.6
2018-12-05T04:40:31.387Z,6.49
2018-12-05T04:41:31.366Z,6.6
2018-12-05T04:42:31.625Z,6.48
2018-12-05T04:43:31.673Z,6.6
2018-12-05T04:44:31.375Z,6.46
2018-12-05T04:45:31.582Z,6.57
2018-12-05T04:46:31.591Z,6.54
2018-12-05T04:47:31.580Z,6.6
2018-12-05T04:48:31.315Z,6.51
2018-12-05T04:49:31.571Z,6.52
2018-12-05T04:50:31.545Z,6.56
2018-12-05T04:51:31.549Z,6.57
2018-12-05T04:52:31.548Z,6.56
2018-12-05T04:53:31.523Z,6.57
2018-12-05T04:54:31.265Z,6.72
2018-12-05T04:55:31.507Z,6.69
2018-12-05T04:56:31.507Z,6.69
2018-12-05T04:57:31.493Z,6.72
2018-12-05T04:58:31.494Z,6.7
2018-12-05T04:59:31.485Z,6.63
2018-12-05T05:00:31.230Z,6.63
2018-12-05T05:01:31.222Z,6.62
2018-12-05T05:02:31.470Z,6.6
2018-12-05T05:03:31.476Z,6.56
2018-12-05T05:04:30.964Z,6.59
2018-12-05T05:05:31.186Z,6.63
2018-12-05T05:06:31.446Z,6.67
2018-12-05T05:07:31.438Z,6.64
2018-12-05T05:08:31.164Z,6.69
2018-12-05T05:09:31.168Z,6.59
2018-12-05T05:10:30.909Z,6.64
2018-12-05T05:11:31.157Z,6.64
2018-12-05T05:12:31.383Z,6.69
2018-12-05T05:13:31.141Z,6.67
2018-12-05T05:14:31.367Z,6.7
2018-12-05T05:15:31.111Z,6.7
2018-12-05T05:16:31.108Z,6.64
2018-12-05T05:17:31.341Z,6.66
2018-12-05T05:18:31.335Z,6.7
2018-12-05T05:19:31.087Z,6.57
2018-12-05T05:20:31.417Z,6.66
2018-12-05T05:21:31.079Z,6.63
2018-12-05T05:22:31.080Z,6.66
2018-12-05T05:23:31.053Z,6.69
2018-12-05T05:24:31.315Z,6.69
2018-12-05T05:25:30.799Z,6.69
2018-12-05T05:26:31.108Z,6.66
2018-12-05T05:27:31.061Z,6.67
2018-12-05T05:28:31.284Z,6.75
2018-12-05T05:29:31.035Z,6.67
2018-12-05T05:30:30.789Z,6.67
2018-12-05T05:31:31.021Z,6.66
2018-12-05T05:32:30.997Z,6.69
2018-12-05T05:33:31.303Z,6.62
2018-12-05T05:34:30.993Z,6.67
2018-12-05T05:35:30.985Z,6.72
2018-12-05T05:36:31.803Z,6.66
2018-12-05T05:37:31.207Z,6.72
2018-12-05T05:38:31.225Z,6.66
2018-12-05T05:39:30.963Z,6.7
2018-12-05T05:40:31.191Z,6.64
2018-12-05T05:41:31.198Z,6.75
2018-12-05T05:42:30.921Z,6.75
2018-12-05T05:43:31.169Z,6.7
2018-12-05T05:44:31.182Z,6.72
2018-12-05T05:45:31.129Z,6.72
2018-12-05T05:46:30.651Z,6.72
2018-12-05T05:47:31.125Z,6.7
2018-12-05T05:48:31.118Z,6.82
2018-12-05T05:49:31.100Z,6.77
2018-12-05T05:50:31.098Z,6.87
2018-12-05T05:51:30.841Z,6.79
2018-12-05T05:52:30.836Z,6.85
2018-12-05T05:53:31.069Z,6.87
2018-12-05T05:54:31.078Z,6.72
2018-12-05T05:55:31.055Z,6.7
2018-12-05T05:56:30.800Z,6.72
2018-12-05T05:57:31.072Z,6.67
2018-12-05T05:58:30.788Z,6.64
2018-12-05T05:59:31.043Z,6.64
2018-12-05T06:00:31.015Z,6.72
2018-12-05T06:01:31.035Z,6.63
2018-12-05T06:02:31.009Z,6.6
2018-12-05T06:03:31.010Z,6.63
2018-12-05T06:04:30.992Z,6.59
2018-12-05T06:05:30.754Z,6.59
2018-12-05T06:06:30.989Z,6.6
2018-12-05T06:07:30.964Z,6.57
2018-12-05T06:08:30.955Z,6.59
2018-12-05T06:09:30.946Z,6.52
2018-12-05T06:10:30.946Z,6.56
2018-12-05T06:11:30.931Z,6.57
2018-12-05T06:12:30.930Z,6.63
2018-12-05T06:13:30.955Z,6.57
2018-12-05T06:14:30.909Z,6.69
2018-12-05T06:15:30.661Z,6.69
2018-12-05T06:16:30.642Z,6.72
2018-12-05T06:17:30.884Z,6.74
2018-12-05T06:18:30.394Z,6.72
2018-12-05T06:19:30.879Z,6.75
2018-12-05T06:20:30.630Z,6.74
2018-12-05T06:21:31.929Z,6.72
2018-12-05T06:22:30.451Z,6.77
2018-12-05T06:23:30.849Z,6.69
2018-12-05T06:24:30.960Z,6.75
2018-12-05T06:25:30.831Z,6.74
2018-12-05T06:26:30.584Z,6.75
2018-12-05T06:27:30.808Z,6.75
2018-12-05T06:28:30.801Z,6.67
2018-12-05T06:29:30.811Z,6.69
2018-12-05T06:30:30.811Z,6.78
2018-12-05T06:31:30.525Z,6.78
2018-12-05T06:32:30.769Z,6.81
2018-12-05T06:33:30.890Z,6.77
2018-12-05T06:34:30.522Z,6.74
2018-12-05T06:35:30.519Z,6.84
2018-12-05T06:36:30.511Z,6.84
2018-12-05T06:37:30.511Z,6.72
2018-12-05T06:38:30.246Z,6.78
2018-12-05T06:39:30.733Z,6.75
2018-12-05T06:40:30.720Z,6.75
2018-12-05T06:41:31.256Z,6.74
2018-12-05T06:42:30.703Z,6.85
2018-12-05T06:43:30.442Z,6.87
2018-12-05T06:44:30.443Z,6.82
2018-12-05T06:45:30.438Z,6.92
2018-12-05T06:46:30.182Z,6.85
2018-12-05T06:47:30.426Z,6.92
2018-12-05T06:48:30.411Z,6.89
2018-12-05T06:49:30.193Z,6.88
2018-12-05T06:50:30.404Z,6.88
2018-12-05T06:51:30.778Z,6.87
2018-12-05T06:52:30.427Z,6.89
2018-12-05T06:53:30.375Z,6.89
2018-12-05T06:54:30.396Z,6.89
2018-12-05T06:55:30.367Z,6.96
2018-12-05T06:56:30.376Z,6.93
2018-12-05T06:57:30.105Z,6.84
2018-12-05T06:58:30.347Z,6.89
2018-12-05T06:59:30.590Z,7.06
2018-12-05T07:00:30.365Z,6.96
2018-12-05T07:01:30.310Z,6.95
2018-12-05T07:02:30.056Z,6.97
2018-12-05T07:03:30.548Z,6.96
2018-12-05T07:04:30.534Z,6.88
2018-12-05T07:05:30.285Z,6.96
2018-12-05T07:06:30.528Z,7
2018-12-05T07:07:30.538Z,6.99
2018-12-05T07:08:30.263Z,7.1
2018-12-05T07:09:30.266Z,6.99
2018-12-05T07:10:29.995Z,6.96
2018-12-05T07:11:30.239Z,7
2018-12-05T07:12:30.224Z,7.03
2018-12-05T07:13:29.977Z,7.03
2018-12-05T07:14:29.997Z,7.02
2018-12-05T07:15:30.215Z,7
2018-12-05T07:16:29.952Z,6.99
2018-12-05T07:17:30.016Z,6.97
2018-12-05T07:18:30.019Z,6.99
2018-12-05T07:19:29.962Z,7.02
2018-12-05T07:20:29.931Z,7.02
2018-12-05T07:21:30.424Z,6.89
2018-12-05T07:22:29.945Z,7
2018-12-05T07:23:30.424Z,7.06
2018-12-05T07:24:30.148Z,7
2018-12-05T07:25:30.399Z,6.99
2018-12-05T07:26:30.390Z,7.07
2018-12-05T07:27:30.366Z,7.02
2018-12-05T07:28:30.121Z,7.03
2018-12-05T07:29:30.104Z,7.11
2018-12-05T07:30:34.055Z,7.13
2018-12-05T07:31:30.364Z,7.14
2018-12-05T07:32:30.347Z,7.15
2018-12-05T07:33:30.340Z,7.14
2018-12-05T07:34:30.084Z,7.18
2018-12-05T07:35:30.067Z,7.18
2018-12-05T07:36:30.243Z,7.23
2018-12-05T07:37:30.045Z,7.25
2018-12-05T07:38:30.048Z,7.29
2018-12-05T07:39:30.041Z,7.29
2018-12-05T07:40:30.294Z,7.32
2018-12-05T07:41:30.035Z,7.38
2018-12-05T07:42:30.013Z,7.33
2018-12-05T07:43:30.003Z,7.39
2018-12-05T07:44:30.254Z,7.38
2018-12-05T07:45:30.033Z,7.4
2018-12-05T07:46:29.993Z,7.39
2018-12-05T07:47:29.733Z,7.43
2018-12-05T07:48:29.733Z,7.38
2018-12-05T07:49:29.995Z,7.39
2018-12-05T07:50:30.204Z,7.42
2018-12-05T07:51:30.197Z,7.42
2018-12-05T07:52:30.191Z,7.48
2018-12-05T07:53:30.197Z,7.48
2018-12-05T07:54:30.181Z,7.5
2018-12-05T07:55:30.170Z,7.42
2018-12-05T07:56:29.943Z,7.47
2018-12-05T07:57:30.162Z,7.5
2018-12-05T07:58:30.156Z,7.54
2018-12-05T07:59:30.141Z,7.56
2018-12-05T08:00:29.739Z,7.58
2018-12-05T08:01:29.878Z,7.7
2018-12-05T08:02:30.123Z,7.73
2018-12-05T08:03:29.873Z,7.72
2018-12-05T08:04:29.616Z,7.8
2018-12-05T08:05:29.602Z,7.76
2018-12-05T08:06:30.089Z,7.76
2018-12-05T08:07:30.087Z,7.7
2018-12-05T08:08:29.850Z,7.76
2018-12-05T08:09:29.825Z,7.72
2018-12-05T08:10:30.058Z,7.75
2018-12-05T08:11:30.067Z,7.73
2018-12-05T08:12:30.048Z,7.79
2018-12-05T08:13:30.085Z,7.77
2018-12-05T08:14:29.780Z,7.82
2018-12-05T08:15:29.800Z,7.73
2018-12-05T08:16:29.524Z,7.72
2018-12-05T08:17:30.018Z,7.79
2018-12-05T08:18:30.026Z,7.83
2018-12-05T08:19:29.754Z,7.75
2018-12-05T08:20:29.989Z,7.72
2018-12-05T08:21:29.746Z,7.77
2018-12-05T08:22:30.020Z,7.8
2018-12-05T08:23:29.997Z,7.72
2018-12-05T08:24:29.728Z,7.83
2018-12-05T08:25:29.721Z,7.82
2018-12-05T08:26:29.958Z,7.79
2018-12-05T08:27:29.713Z,7.85
2018-12-05T08:28:29.708Z,7.82
2018-12-05T08:29:29.688Z,7.83
2018-12-05T08:30:29.712Z,7.83
2018-12-05T08:31:29.944Z,7.79
2018-12-05T08:32:29.695Z,7.87
2018-12-05T08:33:29.671Z,7.87
2018-12-05T08:34:29.904Z,7.82
2018-12-05T08:35:29.656Z,7.87
2018-12-05T08:36:29.389Z,7.83
2018-12-05T08:37:29.884Z,7.85
2018-12-05T08:38:29.651Z,7.91
2018-12-05T08:39:29.879Z,7.8
2018-12-05T08:40:29.873Z,7.82
2018-12-05T08:41:29.612Z,7.85
2018-12-05T08:42:29.609Z,7.91
2018-12-05T08:43:29.843Z,7.9
2018-12-05T08:44:29.841Z,7.91
2018-12-05T08:45:29.844Z,7.94
2018-12-05T08:46:29.608Z,7.98
2018-12-05T08:47:36.186Z,7.95
2018-12-05T08:48:29.342Z,7.98
2018-12-05T08:49:29.328Z,8
2018-12-05T08:50:29.587Z,7.9
2018-12-05T08:51:29.550Z,8.03
2018-12-05T08:52:29.554Z,8.01
2018-12-05T08:53:29.786Z,7.95
2018-12-05T08:54:29.282Z,7.98
2018-12-05T08:55:29.765Z,8.03
2018-12-05T08:56:29.532Z,8.01
2018-12-05T08:57:29.524Z,8.09
2018-12-05T08:58:29.745Z,8.03
2018-12-05T08:59:29.496Z,8.03
2018-12-05T09:00:29.498Z,8.19
2018-12-05T09:01:29.721Z,8.13
2018-12-05T09:02:29.730Z,8.13
2018-12-05T09:03:29.720Z,8.06
2018-12-05T09:04:29.219Z,8.27
2018-12-05T09:05:29.475Z,8.18
2018-12-05T09:06:29.286Z,8.15
2018-12-05T09:07:29.710Z,8.27
2018-12-05T09:08:29.456Z,8.33
2018-12-05T09:09:29.432Z,8.33
2018-12-05T09:10:29.695Z,8.28
2018-12-05T09:11:29.760Z,8.37
2018-12-05T09:12:29.420Z,8.38
2018-12-05T09:13:29.417Z,8.42
2018-12-05T09:14:33.381Z,8.58
2018-12-05T09:15:29.651Z,8.53
2018-12-05T09:16:29.663Z,8.71
2018-12-05T09:17:29.399Z,8.7
2018-12-05T09:18:29.404Z,8.78
2018-12-05T09:19:29.374Z,8.78
2018-12-05T09:20:29.395Z,8.89
2018-12-05T09:21:29.130Z,8.89
2018-12-05T09:22:29.121Z,9.02
2018-12-05T09:23:29.614Z,9.06
2018-12-05T09:24:29.342Z,9.06
2018-12-05T09:25:29.335Z,9.08
2018-12-05T09:26:29.332Z,9.04
2018-12-05T09:27:29.391Z,9.14
2018-12-05T09:28:29.327Z,9.14
2018-12-05T09:29:29.574Z,9.19
2018-12-05T09:30:29.073Z,9.18
2018-12-05T09:31:29.310Z,9.16
2018-12-05T09:32:29.553Z,9.18
2018-12-05T09:33:29.552Z,9.14
2018-12-05T09:34:29.535Z,9.18
2018-12-05T09:35:29.292Z,9.18
2018-12-05T09:36:29.284Z,9.18
2018-12-05T09:37:29.030Z,9.19
2018-12-05T09:38:29.278Z,9.11
2018-12-05T09:39:29.265Z,9.32
2018-12-05T09:40:29.306Z,9.28
2018-12-05T09:41:29.512Z,9.31
2018-12-05T09:42:29.262Z,9.44
2018-12-05T09:43:29.501Z,9.39
2018-12-05T09:44:29.236Z,9.44
2018-12-05T09:45:28.994Z,9.41
2018-12-05T09:46:29.480Z,9.34
2018-12-05T09:47:29.488Z,9.4
2018-12-05T09:48:29.468Z,9.47
2018-12-05T09:49:29.463Z,9.55
2018-12-05T09:50:29.463Z,9.58
2018-12-05T09:51:28.959Z,9.55
2018-12-05T09:52:29.449Z,9.65
2018-12-05T09:53:28.944Z,9.72
2018-12-05T09:54:29.454Z,9.79
2018-12-05T09:55:28.949Z,9.76
2018-12-05T09:56:29.191Z,9.68
2018-12-05T09:57:29.423Z,9.65
2018-12-05T09:58:28.929Z,9.61
2018-12-05T09:59:29.175Z,9.61
2018-12-05T10:00:29.171Z,9.54
2018-12-05T10:01:29.405Z,9.66
2018-12-05T10:02:29.398Z,9.62
2018-12-05T10:03:29.152Z,9.64
2018-12-05T10:04:29.149Z,9.66
2018-12-05T10:05:29.393Z,9.65
2018-12-05T10:06:29.582Z,9.64
2018-12-05T10:07:29.139Z,9.74
2018-12-05T10:08:29.373Z,9.73
2018-12-05T10:09:29.118Z,9.74
2018-12-05T10:10:29.117Z,9.76
2018-12-05T10:11:29.363Z,9.73
2018-12-05T10:12:29.349Z,9.73
2018-12-05T10:13:29.100Z,9.77
2018-12-05T10:14:29.179Z,9.8
2018-12-05T10:15:29.084Z,9.84
2018-12-05T10:16:29.090Z,9.83
2018-12-05T10:17:29.341Z,9.86
2018-12-05T10:18:29.319Z,9.83
2018-12-05T10:19:29.100Z,9.87
2018-12-05T10:20:29.318Z,9.89
2018-12-05T10:21:29.301Z,9.92
2018-12-05T10:22:28.815Z,9.92
2018-12-05T10:23:29.294Z,9.98
2018-12-05T10:24:29.080Z,9.98
2018-12-05T10:25:29.084Z,9.95
2018-12-05T10:26:29.284Z,9.99
2018-12-05T10:27:29.278Z,9.98
2018-12-05T10:28:29.024Z,9.98
2018-12-05T10:29:29.263Z,9.95
2018-12-05T10:30:29.005Z,9.89
2018-12-05T10:31:28.772Z,9.86
2018-12-05T10:32:29.252Z,9.91
2018-12-05T10:33:29.247Z,9.95
2018-12-05T10:34:29.022Z,9.95
2018-12-05T10:35:29.007Z,9.89
2018-12-05T10:36:29.140Z,9.89
2018-12-05T10:37:28.784Z,9.83
2018-12-05T10:38:29.226Z,9.83
2018-12-05T10:39:29.220Z,9.79
2018-12-05T10:40:28.984Z,9.77
2018-12-05T10:41:29.211Z,9.65
2018-12-05T10:42:29.203Z,9.61
2018-12-05T10:43:28.740Z,9.55
2018-12-05T10:44:29.203Z,9.61
2018-12-05T10:45:29.197Z,9.64
2018-12-05T10:46:29.192Z,9.56
2018-12-05T10:47:29.167Z,9.61
2018-12-05T10:48:29.189Z,9.61
2018-12-05T10:49:29.175Z,9.65
2018-12-05T10:50:29.197Z,9.79
2018-12-05T10:51:28.947Z,9.79
2018-12-05T10:52:29.163Z,9.86
2018-12-05T10:53:29.714Z,9.95
2018-12-05T10:54:28.900Z,10.09
2018-12-05T10:55:28.901Z,10.1
2018-12-05T10:56:28.895Z,10.17
2018-12-05T10:57:28.942Z,10.23
2018-12-05T10:58:28.885Z,10.25
2018-12-05T10:59:28.905Z,10.33
2018-12-05T11:00:28.875Z,10.35
2018-12-05T11:01:28.900Z,10.37
2018-12-05T11:02:29.117Z,10.37
2018-12-05T11:03:29.106Z,10.37
2018-12-05T11:04:29.139Z,10.38
2018-12-05T11:05:28.859Z,10.35
2018-12-05T11:06:28.855Z,10.37
2018-12-05T11:07:29.085Z,10.35
2018-12-05T11:08:28.581Z,10.28
2018-12-05T11:09:28.842Z,10.13
2018-12-05T11:10:29.081Z,10.25
2018-12-05T11:11:29.058Z,10.3
2018-12-05T11:12:29.072Z,10.33
2018-12-05T11:13:28.568Z,10.35
2018-12-05T11:14:28.810Z,10.38
2018-12-05T11:15:29.037Z,10.4
2018-12-05T11:16:29.056Z,10.48
2018-12-05T11:17:29.046Z,10.44
2018-12-05T11:18:29.061Z,10.42
2018-12-05T11:19:29.019Z,10.44
2018-12-05T11:20:29.016Z,10.6
2018-12-05T11:21:28.770Z,10.57
2018-12-05T11:22:29.049Z,10.51
2018-12-05T11:23:28.824Z,10.49
2018-12-05T11:24:29.007Z,10.57
2018-12-05T11:25:29.059Z,10.61
2018-12-05T11:26:28.763Z,10.54
2018-12-05T11:27:28.742Z,10.61
2018-12-05T11:28:28.725Z,10.53
2018-12-05T11:29:28.764Z,10.48
2018-12-05T11:30:28.993Z,10.54
2018-12-05T11:31:28.963Z,10.53
2018-12-05T11:32:28.519Z,10.57
2018-12-05T11:33:28.741Z,10.54
2018-12-05T11:34:28.934Z,10.61
2018-12-05T11:35:28.983Z,10.57
2018-12-05T11:36:28.464Z,10.6
2018-12-05T11:37:28.737Z,10.57
2018-12-05T11:38:28.718Z,10.71
2018-12-05T11:39:28.428Z,10.72
2018-12-05T11:40:28.688Z,10.75
2018-12-05T11:41:28.677Z,10.75
2018-12-05T11:42:28.679Z,10.75
2018-12-05T11:43:28.935Z,10.82
2018-12-05T11:44:28.928Z,10.81
2018-12-05T11:45:28.663Z,10.82
2018-12-05T11:46:28.923Z,10.93
2018-12-05T11:47:28.903Z,10.79
2018-12-05T11:48:28.646Z,10.86
2018-12-05T11:49:28.393Z,10.81
2018-12-05T11:50:28.889Z,10.86
2018-12-05T11:51:28.893Z,10.94
2018-12-05T11:52:28.669Z,10.92
2018-12-05T11:53:28.633Z,10.89
2018-12-05T11:54:28.643Z,10.92
2018-12-05T11:55:28.879Z,10.99
2018-12-05T11:56:28.886Z,11.02
2018-12-05T11:57:28.642Z,10.96
2018-12-05T11:58:28.612Z,10.92
2018-12-05T11:59:28.860Z,10.94
2018-12-05T12:00:28.634Z,10.93
2018-12-05T12:01:28.881Z,10.99
2018-12-05T12:02:28.845Z,11
2018-12-05T12:03:28.844Z,11.04
2018-12-05T12:04:28.843Z,11
2018-12-05T12:05:29.598Z,11.11
2018-12-05T12:06:28.584Z,11.11
2018-12-05T12:07:28.815Z,11.15
2018-12-05T12:08:28.806Z,11.11
2018-12-05T12:09:28.808Z,11.15
2018-12-05T12:10:28.568Z,11.11
2018-12-05T12:11:28.812Z,11.15
2018-12-05T12:12:28.305Z,11.19
2018-12-05T12:13:28.789Z,11.27
2018-12-05T12:14:28.537Z,11.35
2018-12-05T12:15:28.785Z,11.33
2018-12-05T12:16:28.794Z,11.35
2018-12-05T12:17:28.818Z,11.35
2018-12-05T12:18:28.786Z,11.41
2018-12-05T12:19:28.522Z,11.36
2018-12-05T12:20:28.812Z,11.37
2018-12-05T12:21:28.760Z,11.32
2018-12-05T12:22:28.506Z,11.25
2018-12-05T12:23:28.757Z,11.29
2018-12-05T12:24:34.791Z,11.19
2018-12-05T12:25:28.753Z,11.3
2018-12-05T12:26:35.510Z,11.43
2018-12-05T12:27:28.503Z,11.37
2018-12-05T12:28:28.483Z,11.4
2018-12-05T12:29:28.724Z,11.36
2018-12-05T12:30:28.728Z,11.37
2018-12-05T12:31:28.473Z,11.36
2018-12-05T12:32:28.469Z,11.32
2018-12-05T12:33:28.472Z,11.41
2018-12-05T12:34:28.702Z,11.22
2018-12-05T12:35:28.718Z,11.18
2018-12-05T12:36:28.718Z,11.14
2018-12-05T12:37:28.448Z,11.08
2018-12-05T12:38:28.469Z,10.93
2018-12-05T12:39:28.690Z,10.87
2018-12-05T12:40:28.448Z,10.82
2018-12-05T12:41:28.438Z,10.74
2018-12-05T12:42:28.689Z,10.74
2018-12-05T12:43:28.420Z,10.74
2018-12-05T12:44:28.423Z,10.63
2018-12-05T12:45:28.165Z,10.59
2018-12-05T12:46:28.417Z,10.56
2018-12-05T12:47:28.659Z,10.57
2018-12-05T12:48:28.651Z,10.56
2018-12-05T12:49:28.412Z,10.57
2018-12-05T12:50:28.389Z,10.53
2018-12-05T12:51:28.637Z,10.56
2018-12-05T12:52:28.720Z,10.56
2018-12-05T12:53:31.077Z,10.6
2018-12-05T12:54:28.388Z,10.6
2018-12-05T12:55:28.384Z,10.6
2018-12-05T12:56:29.755Z,10.6
2018-12-05T12:57:28.362Z,10.59
2018-12-05T12:58:28.359Z,10.59
2018-12-05T12:59:28.600Z,10.68
2018-12-05T13:00:28.367Z,10.64
2018-12-05T13:01:28.356Z,10.72
2018-12-05T13:02:28.590Z,10.74
2018-12-05T13:03:28.336Z,10.75
2018-12-05T13:04:28.355Z,10.72
2018-12-05T13:05:28.336Z,10.79
2018-12-05T13:06:28.337Z,10.82
2018-12-05T13:07:28.584Z,10.84
2018-12-05T13:08:28.336Z,10.79
2018-12-05T13:09:28.558Z,10.74
2018-12-05T13:10:28.331Z,10.79
2018-12-05T13:11:28.300Z,10.86
2018-12-05T13:12:28.065Z,10.76
2018-12-05T13:13:28.312Z,10.72
2018-12-05T13:14:28.538Z,10.74
2018-12-05T13:15:28.036Z,10.74
2018-12-05T13:16:28.279Z,10.63